Time;durP1;ratioP1;P1;durP2;ratioP2;P2;SDS_P1;SDS_P2;PMS_P1;PMS_P2;Temp;Humidity;BMP_temperature;BMP_pressure;BME280_temperature;BME280_humidity;BME280_pressure;Samples;Min_cycle;Max_cycle;Signal;HPM_P1;HPM_P2
2022/08/27 00:00:06;;;;;;;11.93;8.30;;;16.90;99.90;;;;;;5033656;28;20025;-81
2022/08/27 00:02:34;;;;;;;11.63;7.97;;;16.90;99.90;;;;;;5033504;28;20025;-81
2022/08/27 00:05:01;;;;;;;10.23;6.85;;;16.90;99.90;;;;;;5033550;28;20419;-81
2022/08/27 00:07:27;;;;;;;8.82;6.28;;;16.90;99.90;;;;;;5033401;28;20390;-81
2022/08/27 00:09:52;;;;;;;11.63;6.97;;;16.90;99.90;;;;;;5033561;28;20032;-81
2022/08/27 00:12:18;;;;;;;9.93;6.35;;;16.90;99.90;;;;;;5033203;28;20028;-81
2022/08/27 00:14:44;;;;;;;10.50;7.85;;;16.90;99.90;;;;;;5037293;28;20028;-80
2022/08/27 00:17:10;;;;;;;11.65;7.93;;;16.90;99.90;;;;;;5044710;28;20093;-81
2022/08/27 00:19:36;;;;;;;15.52;9.45;;;16.90;99.90;;;;;;5037296;28;20116;-80
2022/08/27 00:22:04;;;;;;;11.77;8.75;;;16.90;99.90;;;;;;5037125;28;20068;-80
2022/08/27 00:24:30;;;;;;;14.63;9.57;;;17.00;99.90;;;;;;5036898;28;20100;-81
2022/08/27 00:26:56;;;;;;;13.50;8.43;;;17.00;99.90;;;;;;5037277;28;20489;-81
2022/08/27 00:29:21;;;;;;;17.10;11.85;;;17.00;99.90;;;;;;5037190;28;20047;-81
2022/08/27 00:31:47;;;;;;;14.02;9.90;;;17.00;99.90;;;;;;5036783;28;20520;-81
2022/08/27 00:34:13;;;;;;;13.20;10.43;;;17.00;99.90;;;;;;5037249;28;20124;-81
2022/08/27 00:36:39;;;;;;;18.73;10.75;;;17.00;99.90;;;;;;5036549;28;20030;-81
2022/08/27 00:39:05;;;;;;;15.88;11.23;;;17.10;99.90;;;;;;5019068;28;20026;-80
2022/08/27 00:41:31;;;;;;;20.70;11.75;;;17.10;99.90;;;;;;5050998;28;20359;-81
2022/08/27 00:43:59;;;;;;;13.60;10.95;;;17.10;99.90;;;;;;5057008;28;20025;-80
2022/08/27 00:46:30;;;;;;;15.98;10.88;;;17.10;99.90;;;;;;5056587;28;20017;-81
2022/08/27 00:49:00;;;;;;;12.50;10.40;;;17.10;99.90;;;;;;5056441;28;20025;-81
2022/08/27 00:51:27;;;;;;;15.02;10.93;;;17.20;99.90;;;;;;5056270;28;20152;-80
2022/08/27 00:53:55;;;;;;;15.55;10.90;;;17.20;99.90;;;;;;5037861;28;20029;-80
2022/08/27 00:56:25;;;;;;;18.05;11.55;;;17.20;99.90;;;;;;5036392;28;20041;-81
2022/08/27 00:58:52;;;;;;;13.32;11.88;;;17.20;99.90;;;;;;5036334;28;20025;-81
2022/08/27 01:01:21;;;;;;;18.02;11.68;;;17.20;99.90;;;;;;5041594;28;20025;-81
2022/08/27 01:03:51;;;;;;;15.70;11.85;;;17.20;99.90;;;;;;5056243;28;20512;-81
2022/08/27 01:06:19;;;;;;;18.17;11.90;;;17.20;99.90;;;;;;5056435;28;20024;-81
2022/08/27 01:08:55;;;;;;;19.17;10.93;;;17.20;99.90;;;;;;5056181;28;20163;-81
2022/08/27 01:11:24;;;;;;;16.48;11.40;;;17.20;99.90;;;;;;5046960;28;20854;-81
2022/08/27 01:13:50;;;;;;;20.00;11.18;;;17.20;99.90;;;;;;5036215;28;20033;-81
2022/08/27 01:16:20;;;;;;;16.85;12.07;;;17.20;99.90;;;;;;5035420;28;20025;-81
2022/08/27 01:18:47;;;;;;;18.05;10.98;;;17.20;99.90;;;;;;5035588;28;20470;-80
2022/08/27 01:22:08;;;;;;;18.60;12.15;;;17.20;99.90;;;;;;5036297;28;20365;-81
2022/08/27 01:24:44;;;;;;;17.20;12.25;;;17.20;99.90;;;;;;4982107;28;20054;-80
2022/08/27 01:27:13;;;;;;;15.50;11.65;;;17.20;99.90;;;;;;5035229;28;20051;-80
2022/08/27 01:29:41;;;;;;;13.98;10.85;;;17.20;99.90;;;;;;5032770;28;20343;-81
2022/08/27 01:32:12;;;;;;;21.08;12.25;;;17.20;99.90;;;;;;5055493;28;20383;-81
2022/08/27 01:34:38;;;;;;;15.93;11.57;;;17.20;99.90;;;;;;5055399;28;20488;-81
2022/08/27 01:37:05;;;;;;;21.48;11.88;;;17.20;99.90;;;;;;5055563;28;20029;-81
2022/08/27 01:39:33;;;;;;;18.35;11.30;;;17.20;99.90;;;;;;5037593;28;20359;-80
2022/08/27 01:42:08;;;;;;;17.42;11.93;;;17.30;99.90;;;;;;5050808;28;20021;-81
2022/08/27 01:44:47;;;;;;;18.35;11.65;;;17.30;99.90;;;;;;5017635;28;20065;-81
2022/08/27 01:47:14;;;;;;;14.15;10.43;;;17.20;99.90;;;;;;5018158;28;20473;-80
2022/08/27 01:49:39;;;;;;;16.15;11.32;;;17.20;99.90;;;;;;5046902;28;20049;-80
2022/08/27 01:52:05;;;;;;;19.63;11.52;;;17.20;99.90;;;;;;5055113;28;20056;-80
2022/08/27 01:54:31;;;;;;;15.20;11.65;;;17.20;99.90;;;;;;5045840;28;20026;-81
2022/08/27 01:56:57;;;;;;;15.75;10.77;;;17.20;99.90;;;;;;5035096;28;20053;-81
2022/08/27 01:59:23;;;;;;;16.98;11.63;;;17.20;99.90;;;;;;5035347;28;20025;-80
2022/08/27 02:01:49;;;;;;;14.63;10.73;;;17.10;99.90;;;;;;5032750;28;20485;-80
2022/08/27 02:04:14;;;;;;;17.48;11.05;;;17.10;99.90;;;;;;5055031;28;20045;-81
2022/08/27 02:06:40;;;;;;;15.05;11.00;;;17.10;99.90;;;;;;5055028;28;20445;-81
2022/08/27 02:09:05;;;;;;;16.55;11.70;;;17.10;99.90;;;;;;5054993;28;20082;-81
2022/08/27 02:11:31;;;;;;;17.77;12.07;;;17.10;99.90;;;;;;5055339;28;20405;-81
2022/08/27 02:13:56;;;;;;;15.30;10.77;;;17.00;99.90;;;;;;5055387;28;20377;-80
2022/08/27 02:16:22;;;;;;;17.20;11.07;;;17.00;99.90;;;;;;5054674;28;20474;-80
2022/08/27 02:18:47;;;;;;;15.32;11.07;;;17.00;99.90;;;;;;5054567;28;20529;-80
2022/08/27 02:21:14;;;;;;;13.98;10.27;;;17.00;99.90;;;;;;5054543;28;20458;-80
2022/08/27 02:23:40;;;;;;;20.33;12.43;;;17.00;99.90;;;;;;5054608;28;20097;-80
2022/08/27 02:26:07;;;;;;;16.60;11.55;;;17.00;99.90;;;;;;5054831;28;20029;-81
2022/08/27 02:28:33;;;;;;;14.95;12.05;;;17.00;99.90;;;;;;5054734;28;20021;-80
2022/08/27 02:30:59;;;;;;;14.60;11.00;;;17.00;99.90;;;;;;5036407;28;20476;-80
2022/08/27 02:33:25;;;;;;;17.23;11.68;;;17.00;99.90;;;;;;5034879;28;20079;-80
2022/08/27 02:35:51;;;;;;;15.40;10.90;;;17.00;99.90;;;;;;5034703;28;20391;-80
2022/08/27 02:38:17;;;;;;;14.27;10.43;;;17.00;99.90;;;;;;5034294;28;20061;-80
2022/08/27 02:40:43;;;;;;;15.70;10.13;;;17.00;99.90;;;;;;5033827;28;20421;-80
2022/08/27 02:43:08;;;;;;;13.80;9.63;;;16.90;99.90;;;;;;5034238;28;20455;-82
2022/08/27 02:45:37;;;;;;;14.98;9.75;;;17.00;99.90;;;;;;5034286;28;20022;-80
2022/08/27 02:48:06;;;;;;;11.98;9.93;;;17.00;99.90;;;;;;5034386;28;20056;-81
2022/08/27 02:50:32;;;;;;;12.32;9.82;;;17.00;99.90;;;;;;5034370;28;20404;-80
2022/08/27 02:53:00;;;;;;;14.30;10.07;;;17.00;99.90;;;;;;5034194;28;20029;-81
2022/08/27 02:55:27;;;;;;;14.45;10.75;;;17.00;99.90;;;;;;5016184;28;20490;-80
2022/08/27 02:57:53;;;;;;;12.40;10.18;;;16.90;99.90;;;;;;5034657;28;20017;-80
2022/08/27 03:00:20;;;;;;;13.57;9.98;;;16.90;99.90;;;;;;5053826;28;20056;-80
2022/08/27 03:02:47;;;;;;;13.90;9.07;;;17.00;99.90;;;;;;5053864;28;20079;-80
2022/08/27 03:05:13;;;;;;;12.90;9.95;;;17.00;99.90;;;;;;5054381;28;20363;-80
2022/08/27 03:07:39;;;;;;;11.50;9.80;;;16.90;99.90;;;;;;5053805;28;20021;-81
2022/08/27 03:10:06;;;;;;;13.15;9.68;;;16.90;99.90;;;;;;5037606;28;20431;-81
2022/08/27 03:12:33;;;;;;;12.52;9.73;;;16.90;99.90;;;;;;5033764;28;20022;-80
2022/08/27 03:14:58;;;;;;;11.90;9.07;;;16.90;99.90;;;;;;5033935;28;20022;-80
2022/08/27 03:20:11;;;;;;;12.98;9.82;;;16.90;99.90;;;;;;5034671;28;20075;-80
2022/08/27 03:22:37;;;;;;;13.35;9.40;;;16.90;99.90;;;;;;5053663;28;20017;-81
2022/08/27 03:25:03;;;;;;;13.20;9.55;;;16.90;99.90;;;;;;5037420;28;20056;-80
2022/08/27 03:27:29;;;;;;;13.20;9.52;;;16.90;99.90;;;;;;5033586;28;20021;-80
2022/08/27 03:29:55;;;;;;;13.82;9.55;;;16.90;99.90;;;;;;5015949;28;20382;-80
2022/08/27 03:32:20;;;;;;;13.40;9.30;;;16.90;99.90;;;;;;5033754;28;20033;-80
2022/08/27 03:34:48;;;;;;;12.60;10.65;;;16.90;99.90;;;;;;5033701;28;20032;-81
2022/08/27 03:37:13;;;;;;;12.02;10.15;;;16.90;99.90;;;;;;5038425;28;20458;-81
2022/08/27 03:39:39;;;;;;;12.43;9.52;;;16.90;99.90;;;;;;5053566;28;20040;-81
2022/08/27 03:42:05;;;;;;;13.93;9.40;;;16.90;99.90;;;;;;5032582;28;20041;-80
2022/08/27 03:44:30;;;;;;;12.23;9.23;;;16.90;99.90;;;;;;5033400;28;20032;-80
2022/08/27 03:46:56;;;;;;;12.00;9.98;;;16.90;99.90;;;;;;5033371;28;20056;-80
2022/08/27 03:49:22;;;;;;;10.82;8.55;;;16.90;99.90;;;;;;5033584;28;20071;-81
2022/08/27 03:51:49;;;;;;;11.70;9.68;;;16.90;99.90;;;;;;5033419;28;20100;-81
2022/08/27 03:54:15;;;;;;;12.85;9.00;;;16.90;99.90;;;;;;5033461;28;20112;-85
2022/08/27 03:56:40;;;;;;;10.70;7.80;;;16.90;99.90;;;;;;5044023;28;20124;-81
2022/08/27 03:59:06;;;;;;;9.93;7.55;;;16.90;99.90;;;;;;5053207;28;20455;-81
2022/08/27 04:01:32;;;;;;;11.82;8.40;;;16.90;99.90;;;;;;5052737;28;20443;-80
2022/08/27 04:03:58;;;;;;;13.50;8.88;;;16.90;99.90;;;;;;5053349;28;20490;-82
2022/08/27 04:06:23;;;;;;;10.98;8.02;;;16.90;99.90;;;;;;5053172;28;20045;-81
2022/08/27 04:08:49;;;;;;;14.63;9.10;;;16.90;99.90;;;;;;5053594;28;20036;-81
2022/08/27 04:11:14;;;;;;;13.65;8.00;;;16.90;99.90;;;;;;5045447;28;20381;-79
2022/08/27 04:13:40;;;;;;;9.30;7.30;;;16.90;99.90;;;;;;5051008;28;20461;-79
2022/08/27 04:16:06;;;;;;;9.48;7.55;;;16.90;99.90;;;;;;5043402;28;20409;-79
2022/08/27 04:18:32;;;;;;;9.73;7.43;;;16.90;99.90;;;;;;5032981;28;20104;-79
2022/08/27 04:21:05;;;;;;;8.07;6.85;;;16.90;99.90;;;;;;5044845;28;20485;-79
2022/08/27 04:23:31;;;;;;;11.20;7.45;;;16.80;99.90;;;;;;5032676;28;20036;-76
2022/08/27 04:25:56;;;;;;;9.50;7.35;;;16.80;99.90;;;;;;5043064;28;20025;-76
2022/08/27 04:28:23;;;;;;;9.73;7.40;;;16.80;99.90;;;;;;5037681;28;20029;-76
2022/08/27 04:30:48;;;;;;;8.57;7.07;;;16.80;99.90;;;;;;5051109;28;20021;-80
2022/08/27 04:33:14;;;;;;;11.68;7.35;;;16.80;99.90;;;;;;5043957;28;20680;-76
2022/08/27 04:35:40;;;;;;;10.70;7.82;;;16.80;99.90;;;;;;5014770;28;20037;-77
2022/08/27 04:38:06;;;;;;;9.55;7.30;;;16.80;99.90;;;;;;5015627;28;20061;-73
2022/08/27 04:43:16;;;;;;;11.13;6.57;;;16.90;99.90;;;;;;5016026;28;20032;-73
2022/08/27 04:45:47;;;;;;;8.55;7.00;;;16.80;99.90;;;;;;5020525;28;20296;-73
2022/08/27 04:48:14;;;;;;;11.77;6.72;;;16.80;99.90;;;;;;5027292;28;20104;-73
2022/08/27 04:50:44;;;;;;;7.47;6.13;;;16.90;99.90;;;;;;5026221;28;20482;-73
2022/08/27 04:53:11;;;;;;;9.13;6.85;;;16.90;99.90;;;;;;5008830;28;20076;-73
2022/08/27 04:55:53;;;;;;;7.95;6.75;;;16.90;99.90;;;;;;5028595;28;20886;-75
2022/08/27 04:58:20;;;;;;;12.63;7.05;;;16.90;99.90;;;;;;5009189;28;20026;-75
2022/08/27 05:00:49;;;;;;;10.15;7.30;;;16.90;99.90;;;;;;5026548;28;20161;-75
2022/08/27 05:03:17;;;;;;;9.07;6.85;;;16.90;99.90;;;;;;5029222;28;20049;-77
2022/08/27 05:05:43;;;;;;;10.25;7.85;;;16.90;99.90;;;;;;5034574;28;20075;-77
2022/08/27 05:08:11;;;;;;;10.25;7.60;;;16.90;99.90;;;;;;5014071;28;20025;-77
2022/08/27 05:10:42;;;;;;;10.65;7.85;;;16.90;99.90;;;;;;5027360;28;20451;-77
2022/08/27 05:13:07;;;;;;;8.93;7.35;;;16.90;99.90;;;;;;5037059;28;20132;-77
2022/08/27 05:15:33;;;;;;;8.45;7.65;;;16.90;99.90;;;;;;5031567;28;20128;-77
2022/08/27 05:17:59;;;;;;;9.40;7.15;;;17.00;99.90;;;;;;5031770;28;20029;-78
2022/08/27 05:20:29;;;;;;;10.20;7.18;;;16.90;99.90;;;;;;5041386;28;20075;-77
2022/08/27 05:22:56;;;;;;;7.55;6.53;;;16.90;99.90;;;;;;5034066;28;20489;-78
2022/08/27 05:25:22;;;;;;;11.50;7.68;;;16.90;99.90;;;;;;5048311;28;20104;-77
2022/08/27 05:27:48;;;;;;;10.82;7.60;;;17.00;99.90;;;;;;5034367;28;20100;-77
2022/08/27 05:30:14;;;;;;;9.38;7.45;;;17.00;99.90;;;;;;5033094;28;20109;-78
2022/08/27 05:32:39;;;;;;;10.07;7.32;;;17.00;99.90;;;;;;5033756;28;20120;-78
2022/08/27 05:35:06;;;;;;;10.25;7.75;;;17.00;99.90;;;;;;5033559;28;20014;-78
2022/08/27 05:37:32;;;;;;;8.85;6.32;;;17.00;99.90;;;;;;5034036;28;20486;-78
2022/08/27 05:39:59;;;;;;;11.57;7.38;;;17.00;99.90;;;;;;5034220;28;20543;-78
2022/08/27 05:42:25;;;;;;;10.57;7.88;;;17.00;99.90;;;;;;5012830;28;20017;-78
2022/08/27 05:44:51;;;;;;;8.85;7.43;;;17.00;99.90;;;;;;5042598;28;20070;-78
2022/08/27 05:47:17;;;;;;;10.57;7.32;;;17.10;99.90;;;;;;5047184;28;20025;-78
2022/08/27 05:49:43;;;;;;;9.98;7.28;;;17.10;99.90;;;;;;5035130;28;20066;-78
2022/08/27 05:52:10;;;;;;;9.63;7.57;;;17.10;99.90;;;;;;5035649;28;20026;-78
2022/08/27 05:54:37;;;;;;;9.65;7.88;;;17.10;99.90;;;;;;5035907;28;20037;-78
2022/08/27 05:57:02;;;;;;;10.00;7.60;;;17.10;99.90;;;;;;5035377;28;20049;-78
2022/08/27 06:02:12;;;;;;;9.25;7.78;;;17.10;99.90;;;;;;5033646;28;20111;-77
2022/08/27 06:04:37;;;;;;;9.50;7.80;;;17.10;99.90;;;;;;5033544;28;20573;-78
2022/08/27 06:07:03;;;;;;;14.38;7.50;;;17.20;99.90;;;;;;5035702;28;20101;-78
2022/08/27 06:09:29;;;;;;;9.93;7.57;;;17.20;99.90;;;;;;5035178;28;20030;-78
2022/08/27 06:11:57;;;;;;;9.48;7.43;;;17.30;99.90;;;;;;5033087;28;20104;-78
2022/08/27 06:14:23;;;;;;;12.38;8.23;;;17.30;99.90;;;;;;5032005;28;20036;-78
2022/08/27 06:16:49;;;;;;;9.93;7.80;;;17.30;99.90;;;;;;5033153;28;20382;-78
2022/08/27 06:19:15;;;;;;;8.90;7.63;;;17.40;99.90;;;;;;5033159;28;20021;-78
2022/08/27 06:21:41;;;;;;;9.23;7.60;;;17.50;99.90;;;;;;5032779;28;20532;-78
2022/08/27 06:24:08;;;;;;;8.98;7.30;;;17.50;99.90;;;;;;5032242;28;20021;-78
2022/08/27 06:26:35;;;;;;;8.77;7.55;;;17.60;99.90;;;;;;5043157;28;20148;-78
2022/08/27 06:29:02;;;;;;;8.85;7.93;;;17.60;99.90;;;;;;5050769;28;20027;-78
2022/08/27 06:31:28;;;;;;;11.15;8.57;;;17.70;99.90;;;;;;5042681;28;20033;-78
2022/08/27 06:33:59;;;;;;;10.63;7.72;;;17.70;99.90;;;;;;5020047;28;20488;-78
2022/08/27 06:36:25;;;;;;;8.15;7.07;;;17.80;99.90;;;;;;5043840;28;20030;-78
2022/08/27 06:38:51;;;;;;;9.27;8.18;;;18.00;99.90;;;;;;5046630;28;20021;-77
2022/08/27 06:41:23;;;;;;;10.13;8.27;;;18.00;99.90;;;;;;5032784;28;20056;-78
2022/08/27 06:43:48;;;;;;;10.27;8.43;;;18.10;99.90;;;;;;5031483;28;20112;-78
2022/08/27 06:46:17;;;;;;;9.93;8.45;;;18.30;99.90;;;;;;5031697;28;20108;-78
2022/08/27 06:48:44;;;;;;;9.73;8.10;;;18.40;99.90;;;;;;5033043;28;20029;-78
2022/08/27 06:51:16;;;;;;;10.13;9.07;;;18.50;99.90;;;;;;5033294;28;20021;-78
2022/08/27 06:53:42;;;;;;;11.60;9.57;;;18.60;99.90;;;;;;5044774;28;20112;-78
2022/08/27 06:56:10;;;;;;;14.88;10.80;;;18.80;99.90;;;;;;5038007;28;20044;-78
2022/08/27 06:58:36;;;;;;;13.60;11.00;;;18.80;99.90;;;;;;5041713;28;20035;-78
2022/08/27 07:01:21;;;;;;;12.27;10.85;;;18.90;99.90;;;;;;5038746;28;20040;-79
2022/08/27 07:03:46;;;;;;;12.70;10.10;;;19.00;99.90;;;;;;5026041;28;20040;-79
2022/08/27 07:06:14;;;;;;;15.98;11.18;;;19.00;99.90;;;;;;5048185;28;20029;-78
2022/08/27 07:08:40;;;;;;;14.00;10.85;;;19.10;99.90;;;;;;5032692;28;20483;-78
2022/08/27 07:11:08;;;;;;;13.35;11.02;;;19.10;99.90;;;;;;5042519;28;20033;-78
2022/08/27 07:13:34;;;;;;;14.25;11.18;;;19.20;99.90;;;;;;5042723;28;20375;-78
2022/08/27 07:16:08;;;;;;;13.68;11.98;;;19.30;99.90;;;;;;5031753;28;20068;-78
2022/08/27 07:18:34;;;;;;;12.32;9.75;;;19.40;99.90;;;;;;5016291;28;20429;-79
2022/08/27 07:21:02;;;;;;;11.40;10.07;;;19.40;99.90;;;;;;5034524;28;20071;-79
2022/08/27 07:23:29;;;;;;;12.48;10.48;;;19.40;99.90;;;;;;5038695;28;20408;-79
2022/08/27 07:25:56;;;;;;;12.40;10.25;;;19.40;99.90;;;;;;5039780;28;20021;-79
2022/08/27 07:28:21;;;;;;;13.23;9.18;;;19.50;99.90;;;;;;5031354;28;20463;-79
2022/08/27 07:30:47;;;;;;;12.98;9.90;;;19.50;99.90;;;;;;5031213;28;20032;-79
2022/08/27 07:33:13;;;;;;;12.40;9.48;;;19.50;99.90;;;;;;5036079;28;20544;-78
2022/08/27 07:35:38;;;;;;;9.10;8.02;;;19.50;99.90;;;;;;5033771;28;20029;-78
2022/08/27 07:38:04;;;;;;;9.93;8.48;;;19.50;99.90;;;;;;5033767;28;20040;-79
2022/08/27 07:40:29;;;;;;;12.20;9.05;;;19.60;99.90;;;;;;5031394;28;20200;-79
2022/08/27 07:45:46;;;;;;;10.20;8.30;;;19.80;99.90;;;;;;5030310;28;20029;-79
2022/08/27 07:48:13;;;;;;;10.85;8.82;;;19.90;99.90;;;;;;5034942;28;20572;-79
2022/08/27 07:50:38;;;;;;;11.07;8.68;;;20.00;99.90;;;;;;5044747;28;20132;-79
2022/08/27 07:53:04;;;;;;;12.70;9.48;;;20.10;99.90;;;;;;5037903;28;20120;-79
2022/08/27 07:55:29;;;;;;;10.65;8.63;;;20.10;99.90;;;;;;5029667;28;20045;-79
2022/08/27 07:57:55;;;;;;;9.27;8.20;;;20.10;99.90;;;;;;5029676;28;20037;-79
2022/08/27 08:00:20;;;;;;;9.80;8.15;;;20.00;99.90;;;;;;5029033;28;20034;-79
2022/08/27 08:02:46;;;;;;;16.58;9.18;;;20.00;99.90;;;;;;5030248;28;20032;-79
2022/08/27 08:05:15;;;;;;;10.75;8.15;;;20.10;99.90;;;;;;5028642;28;20382;-79
2022/08/27 08:07:41;;;;;;;8.52;7.50;;;20.10;99.90;;;;;;5029152;28;20025;-79
2022/08/27 08:10:08;;;;;;;9.05;7.25;;;20.10;99.90;;;;;;5014619;28;20036;-79
2022/08/27 08:12:39;;;;;;;9.63;6.82;;;20.20;99.90;;;;;;5028633;28;20025;-80
2022/08/27 08:15:10;;;;;;;9.75;6.97;;;20.30;99.90;;;;;;5031966;28;20087;-80
2022/08/27 08:17:37;;;;;;;10.02;6.95;;;20.20;99.90;;;;;;5026834;28;20052;-80
2022/08/27 08:20:06;;;;;;;10.45;7.50;;;20.40;99.90;;;;;;5027337;28;20018;-79
2022/08/27 08:22:32;;;;;;;10.02;6.97;;;20.40;99.90;;;;;;5028628;28;20048;-79
2022/08/27 08:24:57;;;;;;;7.75;6.40;;;20.30;99.90;;;;;;5004417;28;20474;-79
2022/08/27 08:27:23;;;;;;;6.63;5.90;;;20.30;99.90;;;;;;5029031;28;20034;-79
2022/08/27 08:29:49;;;;;;;7.15;6.35;;;20.30;99.90;;;;;;5027633;28;20506;-80
2022/08/27 08:32:15;;;;;;;10.13;6.10;;;20.30;99.90;;;;;;5027654;28;20042;-79
2022/08/27 08:34:40;;;;;;;8.98;6.43;;;20.30;99.90;;;;;;5028832;28;20025;-80
2022/08/27 08:37:06;;;;;;;8.18;5.88;;;20.20;99.90;;;;;;5028060;28;20091;-80
2022/08/27 08:39:32;;;;;;;7.80;6.13;;;20.30;99.90;;;;;;5031337;28;20079;-80
2022/08/27 08:42:01;;;;;;;6.47;5.68;;;20.30;99.90;;;;;;5031326;28;20026;-80
2022/08/27 08:44:40;;;;;;;9.90;6.07;;;20.30;99.90;;;;;;5032328;28;20108;-80
2022/08/27 08:47:23;;;;;;;10.98;6.78;;;20.30;99.90;;;;;;5031973;28;20017;-80
2022/08/27 08:49:58;;;;;;;8.48;6.05;;;20.30;99.90;;;;;;5031158;28;20072;-80
2022/08/27 08:53:01;;;;;;;8.88;5.75;;;20.30;99.90;;;;;;5031750;28;20075;-80
2022/08/27 08:55:40;;;;;;;7.05;5.80;;;20.30;99.90;;;;;;5028169;28;20111;-79
2022/08/27 08:58:26;;;;;;;7.50;5.85;;;20.30;99.90;;;;;;5031441;28;20022;-79
2022/08/27 09:01:04;;;;;;;8.80;7.00;;;20.40;99.90;;;;;;5031200;28;20033;-80
2022/08/27 09:03:34;;;;;;;8.07;5.97;;;20.40;99.90;;;;;;5031442;28;20029;-80
2022/08/27 09:06:41;;;;;;;8.35;7.47;;;20.30;99.90;;;;;;5031339;28;20018;-80
2022/08/27 09:09:50;;;;;;;8.75;6.57;;;20.40;99.90;;;;;;5028228;28;20029;-80
2022/08/27 09:12:23;;;;;;;7.95;6.38;;;20.40;99.90;;;;;;5030984;28;20067;-80
2022/08/27 09:15:04;;;;;;;7.68;6.55;;;20.50;99.90;;;;;;5031794;28;20520;-80
2022/08/27 09:17:30;;;;;;;8.93;6.72;;;20.50;99.90;;;;;;5016584;28;20042;-79
2022/08/27 09:19:56;;;;;;;9.57;6.72;;;20.50;99.90;;;;;;5026479;28;20493;-80
2022/08/27 09:22:23;;;;;;;7.90;6.68;;;20.50;99.90;;;;;;5030790;28;20382;-79
2022/08/27 09:24:54;;;;;;;7.72;6.60;;;20.50;99.90;;;;;;5040326;28;20013;-80
2022/08/27 09:27:21;;;;;;;9.05;6.93;;;20.60;99.90;;;;;;5030606;28;20014;-80
2022/08/27 09:29:53;;;;;;;9.77;7.25;;;20.60;99.90;;;;;;5016831;28;20027;-80
2022/08/27 09:32:26;;;;;;;7.07;6.22;;;20.60;99.90;;;;;;5048929;28;20055;-80
2022/08/27 09:34:57;;;;;;;8.80;6.70;;;20.70;99.90;;;;;;5040358;28;20029;-80
2022/08/27 09:37:27;;;;;;;10.38;6.03;;;20.70;99.90;;;;;;5036063;28;20417;-80
2022/08/27 09:40:13;;;;;;;8.88;6.30;;;20.80;99.90;;;;;;5036330;28;20048;-80
2022/08/27 09:42:45;;;;;;;8.65;6.10;;;20.90;99.90;;;;;;5031441;28;20375;-80
2022/08/27 09:45:19;;;;;;;7.10;5.65;;;21.00;99.90;;;;;;5041026;28;20096;-80
2022/08/27 09:47:50;;;;;;;7.32;5.55;;;21.00;99.90;;;;;;5031387;28;20028;-80
2022/08/27 09:50:20;;;;;;;6.03;5.13;;;21.10;99.90;;;;;;5032228;28;20038;-80
2022/08/27 09:52:54;;;;;;;6.43;5.75;;;21.20;99.90;;;;;;5028456;28;20127;-79
2022/08/27 09:55:34;;;;;;;6.53;5.38;;;21.30;99.90;;;;;;5031510;28;20029;-80
2022/08/27 09:58:03;;;;;;;7.45;5.10;;;21.40;99.90;;;;;;5034121;28;20024;-79
2022/08/27 10:00:38;;;;;;;7.82;5.88;;;21.50;99.90;;;;;;5038080;28;20033;-79
2022/08/27 10:03:05;;;;;;;6.82;5.50;;;21.60;99.90;;;;;;5012577;28;20033;-79
2022/08/27 10:05:37;;;;;;;7.03;5.47;;;21.70;99.90;;;;;;5042663;28;20104;-80
2022/08/27 10:08:21;;;;;;;6.35;5.43;;;21.80;99.90;;;;;;5042424;28;20024;-79
2022/08/27 10:10:56;;;;;;;7.80;5.70;;;21.80;99.90;;;;;;5031314;28;20033;-80
2022/08/27 10:13:25;;;;;;;7.53;5.32;;;21.80;99.90;;;;;;5025194;28;20030;-79
2022/08/27 10:16:14;;;;;;;7.07;5.30;;;21.80;99.90;;;;;;5023066;28;20038;-79
2022/08/27 10:18:56;;;;;;;7.93;5.20;;;22.00;99.90;;;;;;5042111;28;20025;-80
2022/08/27 10:21:40;;;;;;;7.93;5.35;;;22.10;99.90;;;;;;5039370;28;20075;-80
2022/08/27 10:24:21;;;;;;;7.93;4.90;;;22.20;99.90;;;;;;5050192;28;20032;-80
2022/08/27 10:26:56;;;;;;;8.20;4.80;;;22.30;99.90;;;;;;5038757;28;20124;-80
2022/08/27 10:29:38;;;;;;;7.05;5.47;;;22.50;99.90;;;;;;5038021;28;20463;-80
2022/08/27 10:32:30;;;;;;;7.05;4.70;;;22.80;99.90;;;;;;5030077;28;20041;-80
2022/08/27 10:35:11;;;;;;;6.85;4.47;;;23.00;99.90;;;;;;5028467;28;20723;-80
2022/08/27 10:38:25;;;;;;;10.43;4.80;;;23.10;99.90;;;;;;5030081;28;20056;-80
2022/08/27 10:40:57;;;;;;;7.07;4.65;;;23.20;99.90;;;;;;4998180;28;20033;-80
2022/08/27 10:43:48;;;;;;;7.00;4.53;;;23.30;99.90;;;;;;5027500;28;20084;-80
2022/08/27 10:46:53;;;;;;;9.27;4.68;;;23.40;99.90;;;;;;5029501;28;20036;-80
2022/08/27 10:49:38;;;;;;;;;;;23.50;99.90;;;;;;5017890;28;20414;-80
2022/08/27 10:52:13;;;;;;;7.68;4.88;;;23.40;99.90;;;;;;5017291;28;19909;-80
2022/08/27 10:54:43;;;;;;;6.85;4.00;;;23.40;99.90;;;;;;5021268;28;20037;-80
2022/08/27 10:57:15;;;;;;;5.90;3.90;;;23.40;99.90;;;;;;5021096;28;20479;-80
2022/08/27 11:00:09;;;;;;;5.72;3.88;;;23.40;99.90;;;;;;5030662;28;20037;-80
2022/08/27 11:02:45;;;;;;;6.50;4.03;;;23.40;99.90;;;;;;5027856;28;20033;-80
2022/08/27 11:05:23;;;;;;;6.25;3.88;;;23.30;99.90;;;;;;5032713;28;20478;-80
2022/08/27 11:08:04;;;;;;;5.88;4.18;;;23.30;99.90;;;;;;5034481;28;20435;-81
2022/08/27 11:10:34;;;;;;;6.13;4.18;;;23.40;99.90;;;;;;5028723;28;20049;-80
2022/08/27 11:13:22;;;;;;;8.23;4.32;;;23.70;99.90;;;;;;5029176;28;20030;-81
2022/08/27 11:15:51;;;;;;;6.50;4.03;;;23.90;99.90;;;;;;5018896;28;20041;-81
2022/08/27 11:18:44;;;;;;;6.70;4.18;;;24.00;99.90;;;;;;5011459;28;20056;-80
2022/08/27 11:21:18;;;;;;;5.28;3.92;;;24.20;99.90;;;;;;5027736;28;20060;-81
2022/08/27 11:23:57;;;;;;;;;;;24.50;99.90;;;;;;5027377;28;20539;-80
2022/08/27 11:26:23;;;;;;;5.25;3.58;;;24.60;99.90;;;;;;5026645;28;19913;-80
2022/08/27 11:28:55;;;;;;;3.65;3.30;;;24.70;99.90;;;;;;5027577;28;20553;-81
2022/08/27 11:31:40;;;;;;;5.15;3.20;;;24.90;99.90;;;;;;5027008;28;20033;-81
2022/08/27 11:34:36;;;;;;;6.20;3.70;;;25.20;99.90;;;;;;5031397;28;20025;-81
2022/08/27 11:37:26;;;;;;;5.97;3.50;;;25.50;99.90;;;;;;5028773;28;20057;-80
2022/08/27 11:39:55;;;;;;;7.00;3.78;;;25.60;99.90;;;;;;5026857;28;20022;-80
2022/08/27 11:42:41;;;;;;;4.88;3.22;;;25.80;99.90;;;;;;5031716;28;20025;-81
2022/08/27 11:45:28;;;;;;;6.68;3.50;;;26.10;99.90;;;;;;5025809;28;20025;-81
2022/08/27 11:48:00;;;;;;;4.60;2.75;;;26.30;99.90;;;;;;5025687;28;20504;-81
2022/08/27 11:50:27;;;;;;;5.90;2.65;;;26.80;99.90;;;;;;5025961;28;20041;-81
2022/08/27 11:53:05;;;;;;;3.97;2.42;;;26.70;99.90;;;;;;5034181;28;20379;-81
2022/08/27 11:55:37;;;;;;;4.97;2.85;;;26.90;99.90;;;;;;5028105;28;20382;-81
2022/08/27 11:58:23;;;;;;;4.28;2.75;;;26.80;99.90;;;;;;5028099;28;20496;-81
2022/08/27 12:00:52;;;;;;;4.85;2.63;;;26.80;99.90;;;;;;5028426;28;20033;-81
2022/08/27 12:03:18;;;;;;;4.65;2.60;;;26.50;99.90;;;;;;5024945;28;20415;-81
2022/08/27 12:06:08;;;;;;;8.30;3.10;;;26.50;99.90;;;;;;5029042;28;20124;-81
2022/08/27 12:08:36;;;;;;;5.07;3.00;;;26.80;99.90;;;;;;5019186;28;20041;-81
2022/08/27 12:11:24;;;;;;;5.15;2.60;;;27.10;99.90;;;;;;5029058;28;20679;-81
2022/08/27 12:13:53;;;;;;;4.55;2.70;;;27.60;99.90;;;;;;5032541;28;20478;-81
2022/08/27 12:16:50;;;;;;;5.78;2.90;;;28.10;99.90;;;;;;5032921;28;20115;-81
2022/08/27 12:19:32;;;;;;;5.13;2.60;;;28.00;99.90;;;;;;5031829;28;20104;-81
2022/08/27 12:22:05;;;;;;;4.50;2.78;;;27.30;99.90;;;;;;5032295;28;20030;-81
2022/08/27 12:24:37;;;;;;;3.22;2.45;;;26.70;99.90;;;;;;5032816;28;20014;-81
2022/08/27 12:27:20;;;;;;;4.63;2.35;;;26.30;99.90;;;;;;5031754;28;20064;-81
2022/08/27 12:29:59;;;;;;;3.13;2.20;;;26.40;99.90;;;;;;5031750;28;20041;-81
2022/08/27 12:32:27;;;;;;;4.05;2.30;;;26.50;99.90;;;;;;5031718;28;20492;-80
2022/08/27 12:35:16;;;;;;;4.45;2.63;;;26.90;99.90;;;;;;5031782;28;20033;-81
2022/08/27 12:38:14;;;;;;;6.18;2.33;;;27.10;99.90;;;;;;5031756;28;20080;-81
2022/08/27 12:40:47;;;;;;;4.43;2.63;;;27.40;99.90;;;;;;5028455;28;20068;-81
2022/08/27 12:43:23;;;;;;;4.23;2.50;;;27.50;99.90;;;;;;5042698;28;20080;-81
2022/08/27 12:45:57;;;;;;;4.75;2.38;;;27.30;99.90;;;;;;5013559;28;20029;-81
2022/08/27 12:48:26;;;;;;;5.00;2.45;;;27.30;99.90;;;;;;5031868;28;20803;-81
2022/08/27 12:51:14;;;;;;;4.97;3.00;;;27.30;99.90;;;;;;5027360;28;20047;-81
2022/08/27 12:53:57;;;;;;;4.97;2.63;;;27.50;99.90;;;;;;5031525;28;20037;-81
2022/08/27 12:56:34;;;;;;;3.65;2.40;;;27.70;99.90;;;;;;5031245;28;20045;-81
2022/08/27 12:59:09;;;;;;;3.60;2.72;;;27.60;99.90;;;;;;5031678;28;20480;-81
2022/08/27 13:01:46;;;;;;;;;;;27.30;99.90;;;;;;5030614;28;20773;-81
2022/08/27 13:04:32;;;;;;;4.65;2.53;;;27.30;99.90;;;;;;5026687;28;20012;-81
2022/08/27 13:06:58;;;;;;;6.05;2.92;;;27.40;99.90;;;;;;5027556;28;20025;-81
2022/08/27 13:09:30;;;;;;;6.60;2.95;;;27.50;99.90;;;;;;5030184;28;20021;-81